createdAt,value
2018-12-17T00:02:16.036Z,42.53
2018-12-17T00:04:44.486Z,36.53
2018-12-17T00:07:12.876Z,41.80
2018-12-17T00:09:41.291Z,40.40
2018-12-17T00:12:16.369Z,35.97
2018-12-17T00:14:40.163Z,33.47
2018-12-17T00:17:08.587Z,33.63
2018-12-17T00:19:36.960Z,38.80
2018-12-17T00:22:05.552Z,48.13
2018-12-17T00:24:33.963Z,35.80
2018-12-17T00:27:02.366Z,30.30
2018-12-17T00:29:30.775Z,42.83
2018-12-17T00:31:59.209Z,35.73
2018-12-17T00:34:27.569Z,35.47
2018-12-17T00:36:56.026Z,41.03
2018-12-17T00:39:24.505Z,38.37
2018-12-17T00:41:53.202Z,32.90
2018-12-17T00:44:21.803Z,39.90
2018-12-17T00:46:50.544Z,29.17
2018-12-17T00:49:19.065Z,25.40
2018-12-17T00:51:47.483Z,43.20
2018-12-17T00:54:15.882Z,40.57
2018-12-17T00:56:44.298Z,31.93
2018-12-17T00:59:12.783Z,35.47
2018-12-17T01:01:41.163Z,31.70
2018-12-17T01:04:09.734Z,33.90
2018-12-17T01:06:38.204Z,27.97
2018-12-17T01:09:07.211Z,33.50
2018-12-17T01:11:35.830Z,32.10
2018-12-17T01:14:04.309Z,33.03
2018-12-17T01:16:32.712Z,26.93
2018-12-17T01:19:01.387Z,29.20
2018-12-17T01:21:30.224Z,30.57
2018-12-17T01:23:58.651Z,36.17
2018-12-17T01:26:27.368Z,33.63
2018-12-17T01:28:55.766Z,27.63
2018-12-17T01:31:24.155Z,30.27
2018-12-17T01:33:52.535Z,29.90
2018-12-17T01:36:20.965Z,24.50
2018-12-17T01:38:49.340Z,34.87
2018-12-17T01:41:17.739Z,34.73
2018-12-17T01:43:46.287Z,28.67
2018-12-17T01:46:14.735Z,35.27
2018-12-17T01:48:43.212Z,31.70
2018-12-17T01:51:11.666Z,23.10
2018-12-17T01:53:40.057Z,28.83
2018-12-17T01:56:08.446Z,29.70
2018-12-17T01:58:36.826Z,23.40
2018-12-17T02:01:05.287Z,25.17
2018-12-17T02:03:34.050Z,24.37
2018-12-17T02:06:02.474Z,28.63
2018-12-17T02:08:31.178Z,33.33
2018-12-17T02:10:59.666Z,34.13
2018-12-17T02:13:28.104Z,34.33
2018-12-17T02:15:56.489Z,31.70
2018-12-17T02:18:25.091Z,34.87
2018-12-17T02:20:53.518Z,29.67
2018-12-17T02:23:21.927Z,30.10
2018-12-17T02:25:50.314Z,30.27
2018-12-17T02:28:19.294Z,33.20
2018-12-17T02:30:47.690Z,30.07
2018-12-17T02:33:16.156Z,22.43
2018-12-17T02:35:44.610Z,23.77
2018-12-17T02:38:13.026Z,26.77
2018-12-17T02:40:41.415Z,24.60
2018-12-17T02:43:09.907Z,29.43
2018-12-17T02:45:38.311Z,19.90
2018-12-17T02:48:06.727Z,23.80
2018-12-17T02:50:35.196Z,38.67
2018-12-17T02:53:03.591Z,51.07
2018-12-17T02:55:31.972Z,57.40
2018-12-17T02:58:00.434Z,40.23
2018-12-17T03:00:28.806Z,38.23
2018-12-17T03:02:57.172Z,71.17
2018-12-17T03:05:25.682Z,38.87
2018-12-17T03:07:54.098Z,37.50
2018-12-17T03:10:22.491Z,52.90
2018-12-17T03:12:50.941Z,33.93
2018-12-17T03:15:19.391Z,38.10
2018-12-17T03:17:47.818Z,46.63
2018-12-17T03:20:16.452Z,45.53
2018-12-17T03:22:44.834Z,33.47
2018-12-17T03:25:13.221Z,36.13
2018-12-17T03:27:47.530Z,35.73
2018-12-17T03:30:15.947Z,29.37
2018-12-17T03:32:44.400Z,27.80
2018-12-17T03:35:12.872Z,25.70
2018-12-17T03:37:41.256Z,30.30
2018-12-17T03:40:09.647Z,22.30
2018-12-17T03:42:38.027Z,30.37
2018-12-17T03:45:06.530Z,28.17
2018-12-17T03:47:34.904Z,23.90
2018-12-17T03:50:03.335Z,28.83
2018-12-17T03:52:31.785Z,28.13
2018-12-17T03:55:00.251Z,25.20
2018-12-17T03:57:28.633Z,20.00
2018-12-17T03:59:57.046Z,26.00
2018-12-17T04:02:25.434Z,27.97
2018-12-17T04:04:54.087Z,24.50
2018-12-17T04:07:22.884Z,23.27
2018-12-17T04:09:51.386Z,19.57
2018-12-17T04:12:19.993Z,22.07
2018-12-17T04:14:49.902Z,18.53
2018-12-17T04:17:18.294Z,22.43
2018-12-17T04:19:46.680Z,16.30
2018-12-17T04:28:02.842Z,19.00
2018-12-17T04:30:31.734Z,25.63
2018-12-17T04:33:00.216Z,21.00
2018-12-17T04:38:31.061Z,21.67
2018-12-17T04:40:59.602Z,18.80
2018-12-17T04:43:28.050Z,13.30
2018-12-17T04:45:56.458Z,17.70
2018-12-17T04:48:24.857Z,19.97
2018-12-17T04:50:53.226Z,19.67
2018-12-17T04:59:17.346Z,21.90
2018-12-17T05:01:45.795Z,19.40
2018-12-17T05:04:14.204Z,20.83
2018-12-17T05:06:57.266Z,20.90
2018-12-17T05:09:25.769Z,20.80
2018-12-17T05:11:54.207Z,20.70
2018-12-17T05:14:22.647Z,19.73
2018-12-17T05:16:51.098Z,15.57
2018-12-17T05:19:19.598Z,18.40
2018-12-17T05:21:48.140Z,14.07
2018-12-17T05:24:16.651Z,19.00
2018-12-17T05:26:45.052Z,21.63
2018-12-17T05:29:13.403Z,21.87
2018-12-17T05:31:41.767Z,24.23
2018-12-17T05:34:10.145Z,22.50
2018-12-17T05:36:38.561Z,22.33
2018-12-17T05:39:07.525Z,21.97
2018-12-17T05:41:42.172Z,23.63
2018-12-17T05:44:10.659Z,28.20
2018-12-17T05:46:42.721Z,24.43
2018-12-17T05:49:12.093Z,22.70
2018-12-17T05:51:41.446Z,25.30
2018-12-17T05:54:09.919Z,24.23
2018-12-17T05:56:38.369Z,21.27
2018-12-17T05:59:06.808Z,24.90
2018-12-17T06:01:35.201Z,27.23
2018-12-17T06:04:03.646Z,24.93
2018-12-17T06:06:32.038Z,21.67
2018-12-17T06:09:00.425Z,25.30
2018-12-17T06:11:29.333Z,25.23
2018-12-17T06:13:57.968Z,22.33
2018-12-17T06:16:26.402Z,28.60
2018-12-17T06:18:54.925Z,22.23
2018-12-17T06:21:23.370Z,22.40
2018-12-17T06:23:51.884Z,25.97
2018-12-17T06:26:20.274Z,28.63
2018-12-17T06:28:48.712Z,23.40
2018-12-17T06:31:17.267Z,22.77
2018-12-17T06:33:45.663Z,27.67
2018-12-17T06:36:14.113Z,27.37
2018-12-17T06:38:42.487Z,29.83
2018-12-17T06:41:10.870Z,27.27
2018-12-17T06:43:39.252Z,29.13
2018-12-17T06:46:07.863Z,31.10
2018-12-17T06:48:36.540Z,25.30
2018-12-17T06:51:05.318Z,29.27
2018-12-17T06:53:33.691Z,34.97
2018-12-17T06:56:02.726Z,27.47
2018-12-17T06:58:31.584Z,33.63
2018-12-17T07:01:00.395Z,39.17
2018-12-17T07:03:29.341Z,32.43
2018-12-17T07:05:57.865Z,43.87
2018-12-17T07:08:26.431Z,35.33
2018-12-17T07:10:57.135Z,21.57
2018-12-17T07:13:25.552Z,23.90
2018-12-17T07:15:54.470Z,16.40
2018-12-17T07:18:22.868Z,16.00
2018-12-17T07:20:51.292Z,11.50
2018-12-17T07:23:19.637Z,12.30
2018-12-17T07:25:48.058Z,13.47
2018-12-17T07:28:16.545Z,11.73
2018-12-17T07:30:45.055Z,7.60
2018-12-17T07:33:13.547Z,11.47
2018-12-17T07:35:41.981Z,11.70
2018-12-17T07:38:10.391Z,15.97
2018-12-17T07:40:39.276Z,21.87
2018-12-17T07:43:07.697Z,23.17
2018-12-17T07:45:36.153Z,21.43
2018-12-17T07:48:04.568Z,13.73
2018-12-17T07:50:32.981Z,17.23
2018-12-17T07:53:01.488Z,115.67
2018-12-17T07:55:29.925Z,29.77
2018-12-17T07:57:58.351Z,17.10
2018-12-17T08:00:27.700Z,20.90
2018-12-17T08:02:56.084Z,22.23
2018-12-17T08:05:24.463Z,13.60
2018-12-17T08:07:53.176Z,11.00
2018-12-17T08:10:21.578Z,13.73
2018-12-17T08:12:50.012Z,15.83
2018-12-17T08:15:18.475Z,14.40
2018-12-17T08:17:46.887Z,11.57
2018-12-17T08:20:15.283Z,15.80
2018-12-17T08:22:43.893Z,13.13
2018-12-17T08:25:12.266Z,19.90
2018-12-17T08:27:40.702Z,25.53
2018-12-17T08:30:09.129Z,20.17
2018-12-17T08:32:37.607Z,17.50
2018-12-17T08:35:06.042Z,26.83
2018-12-17T08:37:34.455Z,17.50
2018-12-17T08:40:02.906Z,12.70
2018-12-17T08:42:31.354Z,14.53
2018-12-17T08:44:59.767Z,12.50
2018-12-17T08:47:28.239Z,12.60
2018-12-17T08:49:56.667Z,12.17
2018-12-17T08:52:25.149Z,11.00
2018-12-17T08:54:53.855Z,16.10
2018-12-17T08:57:22.234Z,15.67
2018-12-17T08:59:50.778Z,16.60
2018-12-17T09:02:19.194Z,13.23
2018-12-17T09:04:47.576Z,16.27
2018-12-17T09:07:16.101Z,14.50
2018-12-17T09:09:44.926Z,22.27
2018-12-17T09:12:13.452Z,16.43
2018-12-17T09:14:42.174Z,17.47
2018-12-17T09:17:10.702Z,17.70
2018-12-17T09:19:39.491Z,13.20
2018-12-17T09:22:08.101Z,15.93
2018-12-17T09:24:36.512Z,13.93
2018-12-17T09:27:04.950Z,10.20
2018-12-17T09:29:33.359Z,11.10
2018-12-17T09:32:02.167Z,14.70
2018-12-17T09:34:30.832Z,15.17
2018-12-17T09:36:59.448Z,14.80
2018-12-17T09:39:33.313Z,11.73
2018-12-17T09:42:03.213Z,13.20
2018-12-17T09:44:33.177Z,15.30
2018-12-17T09:47:01.595Z,12.70
2018-12-17T09:49:30.094Z,13.40
2018-12-17T09:51:58.576Z,13.93
2018-12-17T09:54:27.234Z,12.03
2018-12-17T09:56:55.687Z,16.03
2018-12-17T09:59:24.115Z,12.97
2018-12-17T10:01:57.388Z,11.73
2018-12-17T10:04:26.907Z,12.10
2018-12-17T10:07:00.644Z,19.73
2018-12-17T10:09:29.411Z,22.70
2018-12-17T10:11:57.909Z,23.97
2018-12-17T10:14:26.506Z,22.37
2018-12-17T10:16:55.042Z,25.57
2018-12-17T10:22:26.302Z,17.00
2018-12-17T10:24:57.231Z,26.63
2018-12-17T10:27:33.798Z,22.67
2018-12-17T10:30:05.487Z,18.90
2018-12-17T10:32:35.855Z,16.53
2018-12-17T10:35:04.670Z,19.63
2018-12-17T10:37:33.742Z,18.80
2018-12-17T10:40:02.229Z,15.57
2018-12-17T10:42:30.676Z,15.30
2018-12-17T10:45:00.001Z,14.20
2018-12-17T10:47:28.677Z,12.43
2018-12-17T10:49:57.284Z,13.93
2018-12-17T10:52:25.882Z,12.80
2018-12-17T10:54:54.536Z,14.83
2018-12-17T10:57:22.992Z,13.13
2018-12-17T10:59:51.526Z,12.97
2018-12-17T11:02:25.250Z,13.50
2018-12-17T11:04:58.203Z,11.83
2018-12-17T11:07:26.717Z,15.10
2018-12-17T11:09:55.138Z,23.53
2018-12-17T11:12:23.603Z,21.37
2018-12-17T11:14:51.975Z,19.67
2018-12-17T11:17:20.504Z,20.90
2018-12-17T11:19:49.016Z,24.50
2018-12-17T11:22:17.671Z,17.90
2018-12-17T11:24:50.006Z,21.03
2018-12-17T11:27:37.173Z,22.13
2018-12-17T11:30:08.132Z,10.50
2018-12-17T11:32:38.618Z,15.20
2018-12-17T11:35:07.166Z,17.03
2018-12-17T11:37:35.674Z,13.00
2018-12-17T11:40:04.272Z,11.80
2018-12-17T11:42:32.675Z,14.83
2018-12-17T11:45:01.224Z,13.83
2018-12-17T11:47:29.738Z,15.00
2018-12-17T11:49:58.212Z,11.37
2018-12-17T11:52:26.687Z,14.23
2018-12-17T11:54:55.156Z,12.30
2018-12-17T11:57:33.761Z,15.07
2018-12-17T12:00:02.352Z,16.97
2018-12-17T12:02:30.872Z,12.97
2018-12-17T12:04:59.415Z,15.70
2018-12-17T12:07:28.063Z,14.23
2018-12-17T12:09:56.748Z,14.10
2018-12-17T12:12:25.636Z,15.67
2018-12-17T12:14:54.605Z,10.27
2018-12-17T12:17:27.151Z,11.60
2018-12-17T12:19:55.707Z,13.80
2018-12-17T12:22:24.206Z,12.30
2018-12-17T12:24:52.661Z,13.37
2018-12-17T12:27:21.147Z,13.10
2018-12-17T12:29:50.632Z,14.90
2018-12-17T12:32:20.934Z,14.00
2018-12-17T12:34:51.785Z,12.73
2018-12-17T12:37:20.257Z,15.00
2018-12-17T12:39:48.711Z,16.30
2018-12-17T12:42:17.622Z,14.40
2018-12-17T12:44:46.149Z,14.03
2018-12-17T12:47:14.558Z,21.10
2018-12-17T12:49:43.027Z,18.80
2018-12-17T12:52:12.490Z,11.90
2018-12-17T12:54:40.938Z,9.83
2018-12-17T12:57:09.379Z,14.83
2018-12-17T12:59:38.681Z,16.10
2018-12-17T13:02:07.272Z,20.40
2018-12-17T13:04:38.535Z,30.83
2018-12-17T13:07:06.997Z,14.17
2018-12-17T13:09:36.783Z,36.67
2018-12-17T13:12:05.405Z,19.33
2018-12-17T13:14:33.814Z,25.20
2018-12-17T13:17:06.483Z,20.60
2018-12-17T13:19:34.942Z,17.10
2018-12-17T13:22:03.402Z,17.73
2018-12-17T13:24:32.038Z,12.50
2018-12-17T13:27:00.457Z,13.80
2018-12-17T13:29:28.865Z,12.40
2018-12-17T13:31:57.322Z,12.67
2018-12-17T13:34:26.547Z,17.23
2018-12-17T13:36:55.834Z,14.40
2018-12-17T13:39:24.435Z,14.33
2018-12-17T13:41:53.106Z,12.93
2018-12-17T13:44:22.738Z,12.57
2018-12-17T13:46:51.197Z,15.53
2018-12-17T13:49:23.059Z,14.47
2018-12-17T13:51:56.728Z,12.77
2018-12-17T13:54:25.297Z,13.63
2018-12-17T13:56:54.020Z,13.43
2018-12-17T13:59:22.738Z,15.37
2018-12-17T14:01:51.834Z,19.90
2018-12-17T14:04:34.493Z,9.93
2018-12-17T14:07:09.497Z,12.30
2018-12-17T14:09:43.877Z,11.50
2018-12-17T14:14:57.674Z,15.07
2018-12-17T14:17:31.372Z,15.17
2018-12-17T14:20:14.508Z,15.90
2018-12-17T14:26:32.450Z,10.93
2018-12-17T14:29:01.032Z,12.80
2018-12-17T14:31:30.150Z,11.93
2018-12-17T14:33:58.654Z,9.40
2018-12-17T14:36:27.092Z,10.50
2018-12-17T14:38:55.555Z,11.60
2018-12-17T14:41:24.025Z,10.23
2018-12-17T14:43:56.139Z,13.13
2018-12-17T14:46:24.807Z,10.00
2018-12-17T14:48:53.222Z,8.00
2018-12-17T14:51:22.398Z,9.80
2018-12-17T14:53:50.986Z,11.30
2018-12-17T14:56:19.866Z,11.50
2018-12-17T14:58:48.309Z,11.33
2018-12-17T15:01:16.903Z,14.30
2018-12-17T15:03:45.367Z,11.80
2018-12-17T15:06:13.932Z,8.77
2018-12-17T15:08:43.919Z,12.43
2018-12-17T15:11:12.523Z,10.37
2018-12-17T15:13:41.005Z,12.37
2018-12-17T15:16:09.615Z,11.40
2018-12-17T15:18:38.049Z,13.00
2018-12-17T15:21:06.516Z,10.87
2018-12-17T15:23:34.899Z,13.97
2018-12-17T15:26:03.385Z,9.87
2018-12-17T15:28:31.824Z,10.03
2018-12-17T15:31:00.405Z,9.70
2018-12-17T15:33:28.804Z,12.83
2018-12-17T15:35:57.226Z,13.93
2018-12-17T15:38:25.667Z,23.50
2018-12-17T15:40:54.088Z,14.50
2018-12-17T15:43:22.557Z,15.93
2018-12-17T15:45:51.255Z,19.80
2018-12-17T15:48:19.699Z,11.47
2018-12-17T15:50:48.151Z,10.93
2018-12-17T15:53:16.562Z,12.20
2018-12-17T15:55:45.013Z,7.63
2018-12-17T15:58:13.384Z,10.87
2018-12-17T16:00:41.834Z,10.80
2018-12-17T16:03:10.254Z,15.40
2018-12-17T16:05:38.686Z,10.60
2018-12-17T16:08:07.825Z,22.13
2018-12-17T16:10:36.211Z,12.23
2018-12-17T16:13:04.764Z,8.20
2018-12-17T16:15:33.201Z,14.43
2018-12-17T16:18:01.805Z,16.80
2018-12-17T16:20:30.476Z,18.47
2018-12-17T16:22:58.977Z,16.13
2018-12-17T16:25:27.486Z,14.97
2018-12-17T16:27:56.047Z,15.00
2018-12-17T16:30:25.058Z,14.07
2018-12-17T16:32:53.659Z,30.50
2018-12-17T16:35:22.243Z,36.30
2018-12-17T16:37:50.674Z,23.47
2018-12-17T16:40:19.448Z,22.10
2018-12-17T16:42:47.904Z,11.20
2018-12-17T16:45:16.386Z,18.60
2018-12-17T16:47:44.839Z,19.70
2018-12-17T16:50:13.293Z,21.00
2018-12-17T16:52:41.815Z,28.03
2018-12-17T16:55:10.715Z,20.20
2018-12-17T16:57:39.133Z,14.27
2018-12-17T17:00:09.708Z,20.20
2018-12-17T17:02:38.223Z,74.23
2018-12-17T17:05:06.627Z,64.83
2018-12-17T17:07:35.840Z,26.73
2018-12-17T17:10:06.102Z,22.23
2018-12-17T17:12:34.688Z,18.33
2018-12-17T17:15:03.287Z,17.43
2018-12-17T17:17:31.630Z,18.63
2018-12-17T17:20:00.090Z,17.37
2018-12-17T17:22:28.567Z,26.10
2018-12-17T17:24:56.962Z,20.30
2018-12-17T17:27:25.305Z,19.07
2018-12-17T17:29:54.294Z,19.53
2018-12-17T17:32:22.665Z,17.70
2018-12-17T17:34:51.042Z,13.47
2018-12-17T17:37:20.151Z,23.47
2018-12-17T17:39:48.506Z,17.97
2018-12-17T17:42:16.897Z,16.73
2018-12-17T17:44:45.652Z,22.33
2018-12-17T17:47:14.065Z,18.13
2018-12-17T17:49:44.313Z,18.60
2018-12-17T17:52:12.653Z,16.73
2018-12-17T17:54:41.085Z,16.47
2018-12-17T17:57:09.454Z,23.33
2018-12-17T17:59:37.866Z,22.27
2018-12-17T18:02:06.234Z,21.73
2018-12-17T18:04:34.610Z,21.60
2018-12-17T18:07:03.005Z,23.37
2018-12-17T18:09:31.345Z,19.80
2018-12-17T18:12:00.608Z,22.00
2018-12-17T18:14:29.596Z,30.30
2018-12-17T18:16:57.962Z,27.77
2018-12-17T18:19:26.333Z,24.97
2018-12-17T18:21:54.680Z,19.80
2018-12-17T18:24:23.040Z,20.23
2018-12-17T18:26:51.421Z,20.00
2018-12-17T18:29:19.774Z,38.90
2018-12-17T18:31:48.168Z,21.33
2018-12-17T18:34:16.537Z,19.90
2018-12-17T18:36:44.849Z,27.13
2018-12-17T18:39:13.410Z,30.80
2018-12-17T18:41:41.877Z,30.90
2018-12-17T18:44:10.276Z,30.60
2018-12-17T18:46:39.090Z,23.20
2018-12-17T18:49:08.455Z,20.50
2018-12-17T18:51:37.282Z,23.37
2018-12-17T18:54:06.644Z,21.27
2018-12-17T18:56:35.050Z,21.13
2018-12-17T18:59:03.972Z,19.67
2018-12-17T19:01:32.387Z,19.83
2018-12-17T19:04:00.813Z,25.57
2018-12-17T19:06:29.193Z,23.70
2018-12-17T19:08:57.616Z,20.43
2018-12-17T19:11:25.999Z,22.43
2018-12-17T19:13:54.428Z,17.77
2018-12-17T19:16:22.827Z,19.17
2018-12-17T19:18:51.241Z,16.60
2018-12-17T19:21:19.637Z,30.77
2018-12-17T19:23:48.108Z,20.90
2018-12-17T19:26:16.598Z,17.43
2018-12-17T19:28:45.085Z,16.97
2018-12-17T19:31:13.520Z,22.57
2018-12-17T19:33:42.774Z,21.80
2018-12-17T19:36:11.231Z,20.10
2018-12-17T19:38:41.664Z,17.33
2018-12-17T19:41:10.130Z,17.80
2018-12-17T19:43:38.725Z,17.80
2018-12-17T19:46:07.083Z,32.93
2018-12-17T19:48:36.242Z,29.67
2018-12-17T19:51:07.650Z,34.90
2018-12-17T19:53:36.055Z,20.30
2018-12-17T19:56:05.183Z,25.10
2018-12-17T19:58:33.767Z,25.63
2018-12-17T20:01:02.189Z,24.37
2018-12-17T20:03:30.521Z,19.60
2018-12-17T20:05:59.245Z,15.40
2018-12-17T20:08:27.640Z,13.80
2018-12-17T20:10:56.878Z,13.50
2018-12-17T20:13:26.049Z,19.30
2018-12-17T20:15:54.486Z,15.67
2018-12-17T20:18:22.925Z,21.73
2018-12-17T20:20:51.671Z,14.73
2018-12-17T20:23:20.643Z,20.67
2018-12-17T20:25:49.003Z,13.63
2018-12-17T20:28:17.404Z,19.73
2018-12-17T20:30:46.509Z,21.90
2018-12-17T20:33:14.948Z,17.00
2018-12-17T20:35:43.437Z,29.60
2018-12-17T20:38:11.871Z,22.73
2018-12-17T20:40:41.166Z,23.00
2018-12-17T20:43:09.553Z,19.73
2018-12-17T20:45:38.080Z,14.43
2018-12-17T20:48:06.547Z,23.33
2018-12-17T20:50:43.413Z,16.73
2018-12-17T20:53:12.695Z,18.60
2018-12-17T20:55:42.858Z,16.40
2018-12-17T20:58:12.359Z,13.53
2018-12-17T21:00:42.741Z,14.07
2018-12-17T21:03:11.966Z,18.03
2018-12-17T21:05:41.757Z,15.70
2018-12-17T21:08:10.305Z,15.40
2018-12-17T21:10:38.651Z,14.40
2018-12-17T21:13:08.032Z,17.40
2018-12-17T21:15:36.393Z,14.67
2018-12-17T21:18:05.034Z,22.97
2018-12-17T21:20:33.412Z,19.57
2018-12-17T21:23:01.781Z,13.43
2018-12-17T21:25:30.184Z,16.80
2018-12-17T21:27:58.597Z,12.20
2018-12-17T21:30:30.514Z,17.33
2018-12-17T21:33:06.592Z,11.20
2018-12-17T21:35:35.911Z,9.50
2018-12-17T21:38:04.290Z,14.20
2018-12-17T21:40:32.716Z,22.20
2018-12-17T21:43:01.827Z,13.63
2018-12-17T21:45:35.889Z,15.67
2018-12-17T21:48:09.172Z,15.60
2018-12-17T21:50:37.532Z,16.67
2018-12-17T21:53:06.461Z,17.43
2018-12-17T21:55:34.927Z,13.70
2018-12-17T21:58:03.341Z,21.50
2018-12-17T22:00:31.748Z,16.77
2018-12-17T22:03:00.924Z,16.70
2018-12-17T22:05:29.357Z,15.77
2018-12-17T22:07:57.770Z,16.53
2018-12-17T22:10:28.720Z,18.10
2018-12-17T22:12:57.073Z,15.37
2018-12-17T22:15:29.624Z,14.37
2018-12-17T22:17:57.986Z,14.20
2018-12-17T22:20:26.325Z,14.07
2018-12-17T22:22:57.287Z,17.70
2018-12-17T22:25:36.533Z,23.03
2018-12-17T22:28:04.973Z,15.63
2018-12-17T22:30:33.707Z,15.50
2018-12-17T22:33:02.065Z,14.07
2018-12-17T22:35:30.772Z,13.13
2018-12-17T22:37:59.839Z,14.73
2018-12-17T22:40:28.214Z,12.40
2018-12-17T22:42:56.662Z,11.10
2018-12-17T22:45:25.660Z,13.03
2018-12-17T22:47:54.044Z,12.93
2018-12-17T22:50:22.388Z,15.30
2018-12-17T22:52:50.743Z,13.27
2018-12-17T22:55:19.761Z,11.83
2018-12-17T22:57:50.823Z,14.40
2018-12-17T23:00:19.231Z,14.63
2018-12-17T23:02:47.585Z,13.37
2018-12-17T23:05:16.556Z,9.87
2018-12-17T23:07:45.003Z,11.80
2018-12-17T23:10:24.679Z,8.30
2018-12-17T23:13:04.431Z,9.37
2018-12-17T23:15:44.158Z,10.90
2018-12-17T23:18:11.496Z,8.80
2018-12-17T23:20:41.987Z,9.07
2018-12-17T23:23:10.419Z,10.17
2018-12-17T23:25:39.416Z,9.47
2018-12-17T23:28:08.388Z,9.90
2018-12-17T23:30:36.801Z,12.90
2018-12-17T23:33:05.257Z,9.03
2018-12-17T23:35:33.678Z,8.07
2018-12-17T23:38:02.104Z,13.77
2018-12-17T23:40:30.466Z,12.07
2018-12-17T23:42:59.387Z,8.43
2018-12-17T23:45:27.712Z,8.90
2018-12-17T23:47:59.429Z,9.00
2018-12-17T23:50:29.652Z,8.67
2018-12-17T23:52:58.878Z,13.67
2018-12-17T23:55:28.583Z,10.10
2018-12-17T23:57:56.923Z,14.33
